sensor_id;sensor_type;location;lat;lon;timestamp;P1;durP1;ratioP1;P2;durP2;ratioP2
42018;SDS011;27703;51.980;5.848;2022-12-16T00:00:35;38.33;;;21.27;;
42018;SDS011;27703;51.980;5.848;2022-12-16T00:03:00;36.97;;;21.13;;
42018;SDS011;27703;51.980;5.848;2022-12-16T00:05:27;34.58;;;20.33;;
42018;SDS011;27703;51.980;5.848;2022-12-16T00:07:53;32.28;;;20.45;;
42018;SDS011;27703;51.980;5.848;2022-12-16T00:10:19;33.03;;;18.77;;
42018;SDS011;27703;51.980;5.848;2022-12-16T00:12:45;36.33;;;21.88;;
42018;SDS011;27703;51.980;5.848;2022-12-16T00:15:11;31.05;;;19.05;;
42018;SDS011;27703;51.980;5.848;2022-12-16T00:17:36;37.83;;;20.27;;
42018;SDS011;27703;51.980;5.848;2022-12-16T00:20:03;36.60;;;19.85;;
42018;SDS011;27703;51.980;5.848;2022-12-16T00:22:30;33.30;;;18.65;;
42018;SDS011;27703;51.980;5.848;2022-12-16T00:24:55;34.63;;;21.40;;
42018;SDS011;27703;51.980;5.848;2022-12-16T00:27:21;35.10;;;19.27;;
42018;SDS011;27703;51.980;5.848;2022-12-16T00:29:47;37.72;;;20.70;;
42018;SDS011;27703;51.980;5.848;2022-12-16T00:32:12;38.40;;;21.27;;
42018;SDS011;27703;51.980;5.848;2022-12-16T00:34:38;39.45;;;21.25;;
42018;SDS011;27703;51.980;5.848;2022-12-16T00:37:03;36.83;;;19.98;;
42018;SDS011;27703;51.980;5.848;2022-12-16T00:39:29;32.50;;;18.08;;
42018;SDS011;27703;51.980;5.848;2022-12-16T00:41:54;37.08;;;21.38;;
42018;SDS011;27703;51.980;5.848;2022-12-16T00:44:20;34.70;;;19.77;;
42018;SDS011;27703;51.980;5.848;2022-12-16T00:46:45;39.38;;;20.50;;
42018;SDS011;27703;51.980;5.848;2022-12-16T00:49:11;36.92;;;19.88;;
42018;SDS011;27703;51.980;5.848;2022-12-16T00:51:36;38.25;;;19.77;;
42018;SDS011;27703;51.980;5.848;2022-12-16T00:54:02;39.53;;;19.75;;
42018;SDS011;27703;51.980;5.848;2022-12-16T00:56:28;41.25;;;23.90;;
42018;SDS011;27703;51.980;5.848;2022-12-16T00:58:53;37.72;;;22.20;;
42018;SDS011;27703;51.980;5.848;2022-12-16T01:01:19;33.65;;;19.80;;
42018;SDS011;27703;51.980;5.848;2022-12-16T01:03:44;34.30;;;19.73;;
42018;SDS011;27703;51.980;5.848;2022-12-16T01:06:11;34.53;;;20.17;;
42018;SDS011;27703;51.980;5.848;2022-12-16T01:08:40;36.43;;;21.43;;
42018;SDS011;27703;51.980;5.848;2022-12-16T01:13:39;38.90;;;20.55;;
42018;SDS011;27703;51.980;5.848;2022-12-16T01:16:04;39.67;;;21.92;;
42018;SDS011;27703;51.980;5.848;2022-12-16T01:18:30;36.28;;;21.05;;
42018;SDS011;27703;51.980;5.848;2022-12-16T01:21:00;42.78;;;24.42;;
42018;SDS011;27703;51.980;5.848;2022-12-16T01:23:27;42.97;;;23.65;;
42018;SDS011;27703;51.980;5.848;2022-12-16T01:25:54;46.78;;;24.52;;
42018;SDS011;27703;51.980;5.848;2022-12-16T01:28:22;45.15;;;25.98;;
42018;SDS011;27703;51.980;5.848;2022-12-16T01:30:48;44.65;;;24.15;;
42018;SDS011;27703;51.980;5.848;2022-12-16T01:33:18;42.38;;;23.52;;
42018;SDS011;27703;51.980;5.848;2022-12-16T01:35:44;40.42;;;22.40;;
42018;SDS011;27703;51.980;5.848;2022-12-16T01:38:09;35.72;;;20.80;;
42018;SDS011;27703;51.980;5.848;2022-12-16T01:40:35;44.35;;;21.85;;
42018;SDS011;27703;51.980;5.848;2022-12-16T01:43:00;32.10;;;19.83;;
42018;SDS011;27703;51.980;5.848;2022-12-16T01:45:30;38.55;;;21.00;;
42018;SDS011;27703;51.980;5.848;2022-12-16T01:48:00;36.00;;;20.45;;
42018;SDS011;27703;51.980;5.848;2022-12-16T01:50:39;33.42;;;20.67;;
42018;SDS011;27703;51.980;5.848;2022-12-16T01:53:06;40.53;;;20.60;;
42018;SDS011;27703;51.980;5.848;2022-12-16T01:55:33;31.58;;;19.38;;
42018;SDS011;27703;51.980;5.848;2022-12-16T01:58:06;36.17;;;20.30;;
42018;SDS011;27703;51.980;5.848;2022-12-16T02:00:36;34.10;;;20.38;;
42018;SDS011;27703;51.980;5.848;2022-12-16T02:03:04;35.92;;;20.35;;
42018;SDS011;27703;51.980;5.848;2022-12-16T02:05:31;41.67;;;23.00;;
42018;SDS011;27703;51.980;5.848;2022-12-16T02:13:19;39.25;;;21.83;;
42018;SDS011;27703;51.980;5.848;2022-12-16T02:18:47;38.17;;;22.48;;
42018;SDS011;27703;51.980;5.848;2022-12-16T02:24:28;38.10;;;22.35;;
42018;SDS011;27703;51.980;5.848;2022-12-16T02:33:26;36.85;;;20.27;;
42018;SDS011;27703;51.980;5.848;2022-12-16T02:44:06;35.70;;;22.10;;
42018;SDS011;27703;51.980;5.848;2022-12-16T02:46:37;39.78;;;21.38;;
42018;SDS011;27703;51.980;5.848;2022-12-16T02:49:08;36.10;;;20.95;;
42018;SDS011;27703;51.980;5.848;2022-12-16T02:51:49;35.03;;;21.20;;
42018;SDS011;27703;51.980;5.848;2022-12-16T02:54:15;41.05;;;20.77;;
42018;SDS011;27703;51.980;5.848;2022-12-16T03:02:15;34.40;;;21.42;;
42018;SDS011;27703;51.980;5.848;2022-12-16T03:07:51;33.78;;;19.73;;
42018;SDS011;27703;51.980;5.848;2022-12-16T03:10:18;34.85;;;20.55;;
42018;SDS011;27703;51.980;5.848;2022-12-16T03:12:48;36.92;;;20.63;;
42018;SDS011;27703;51.980;5.848;2022-12-16T03:15:16;34.20;;;20.55;;
42018;SDS011;27703;51.980;5.848;2022-12-16T03:17:45;39.67;;;21.38;;
42018;SDS011;27703;51.980;5.848;2022-12-16T03:20:20;35.10;;;21.27;;
42018;SDS011;27703;51.980;5.848;2022-12-16T03:22:58;38.67;;;20.45;;
42018;SDS011;27703;51.980;5.848;2022-12-16T03:25:26;35.53;;;21.17;;
42018;SDS011;27703;51.980;5.848;2022-12-16T03:30:29;41.30;;;22.02;;
42018;SDS011;27703;51.980;5.848;2022-12-16T03:36:06;32.90;;;20.20;;
42018;SDS011;27703;51.980;5.848;2022-12-16T03:38:33;38.33;;;22.73;;
42018;SDS011;27703;51.980;5.848;2022-12-16T03:41:00;35.03;;;21.10;;
42018;SDS011;27703;51.980;5.848;2022-12-16T03:43:27;38.58;;;20.55;;
42018;SDS011;27703;51.980;5.848;2022-12-16T03:45:54;42.92;;;23.02;;
42018;SDS011;27703;51.980;5.848;2022-12-16T03:48:24;36.10;;;21.90;;
42018;SDS011;27703;51.980;5.848;2022-12-16T03:50:50;38.85;;;21.17;;
42018;SDS011;27703;51.980;5.848;2022-12-16T03:53:15;34.08;;;21.25;;
42018;SDS011;27703;51.980;5.848;2022-12-16T03:55:41;42.08;;;22.77;;
42018;SDS011;27703;51.980;5.848;2022-12-16T03:58:07;39.00;;;22.52;;
42018;SDS011;27703;51.980;5.848;2022-12-16T04:00:32;39.42;;;22.40;;
42018;SDS011;27703;51.980;5.848;2022-12-16T04:02:58;44.00;;;22.77;;
42018;SDS011;27703;51.980;5.848;2022-12-16T04:05:23;34.10;;;19.40;;
42018;SDS011;27703;51.980;5.848;2022-12-16T04:07:49;36.10;;;19.90;;
42018;SDS011;27703;51.980;5.848;2022-12-16T04:10:15;37.13;;;21.45;;
42018;SDS011;27703;51.980;5.848;2022-12-16T04:12:40;43.67;;;23.70;;
42018;SDS011;27703;51.980;5.848;2022-12-16T04:15:24;45.47;;;23.02;;
42018;SDS011;27703;51.980;5.848;2022-12-16T04:18:13;40.08;;;24.10;;
42018;SDS011;27703;51.980;5.848;2022-12-16T04:21:00;44.53;;;23.27;;
42018;SDS011;27703;51.980;5.848;2022-12-16T04:23:49;44.58;;;23.10;;
42018;SDS011;27703;51.980;5.848;2022-12-16T04:29:21;43.58;;;22.45;;
42018;SDS011;27703;51.980;5.848;2022-12-16T04:31:47;44.70;;;22.42;;
42018;SDS011;27703;51.980;5.848;2022-12-16T04:34:13;43.83;;;23.23;;
42018;SDS011;27703;51.980;5.848;2022-12-16T04:36:53;43.35;;;22.30;;
42018;SDS011;27703;51.980;5.848;2022-12-16T04:39:38;42.72;;;22.17;;
42018;SDS011;27703;51.980;5.848;2022-12-16T04:42:22;45.75;;;23.60;;
42018;SDS011;27703;51.980;5.848;2022-12-16T04:45:06;44.20;;;22.17;;
42018;SDS011;27703;51.980;5.848;2022-12-16T04:47:55;51.22;;;23.67;;
42018;SDS011;27703;51.980;5.848;2022-12-16T04:50:39;41.38;;;21.80;;
42018;SDS011;27703;51.980;5.848;2022-12-16T04:53:24;39.28;;;19.35;;
42018;SDS011;27703;51.980;5.848;2022-12-16T04:56:08;40.38;;;22.55;;
42018;SDS011;27703;51.980;5.848;2022-12-16T04:58:52;45.28;;;22.38;;
42018;SDS011;27703;51.980;5.848;2022-12-16T05:01:36;34.50;;;18.92;;
42018;SDS011;27703;51.980;5.848;2022-12-16T05:04:20;39.03;;;21.35;;
42018;SDS011;27703;51.980;5.848;2022-12-16T05:07:04;40.15;;;19.95;;
42018;SDS011;27703;51.980;5.848;2022-12-16T05:09:48;44.15;;;22.00;;
42018;SDS011;27703;51.980;5.848;2022-12-16T05:12:32;40.28;;;21.17;;
42018;SDS011;27703;51.980;5.848;2022-12-16T05:15:16;38.53;;;21.08;;
42018;SDS011;27703;51.980;5.848;2022-12-16T05:18:11;39.00;;;19.98;;
42018;SDS011;27703;51.980;5.848;2022-12-16T05:20:57;40.90;;;19.42;;
42018;SDS011;27703;51.980;5.848;2022-12-16T05:23:42;45.97;;;20.25;;
42018;SDS011;27703;51.980;5.848;2022-12-16T05:26:27;41.00;;;22.13;;
42018;SDS011;27703;51.980;5.848;2022-12-16T05:29:11;38.25;;;20.30;;
42018;SDS011;27703;51.980;5.848;2022-12-16T05:31:55;47.05;;;22.23;;
42018;SDS011;27703;51.980;5.848;2022-12-16T05:34:39;39.45;;;18.67;;
42018;SDS011;27703;51.980;5.848;2022-12-16T05:37:23;37.92;;;19.92;;
42018;SDS011;27703;51.980;5.848;2022-12-16T05:40:08;38.83;;;19.55;;
42018;SDS011;27703;51.980;5.848;2022-12-16T05:42:53;40.78;;;21.52;;
42018;SDS011;27703;51.980;5.848;2022-12-16T05:45:38;45.90;;;22.58;;
42018;SDS011;27703;51.980;5.848;2022-12-16T05:48:22;37.33;;;18.98;;
42018;SDS011;27703;51.980;5.848;2022-12-16T05:51:07;46.70;;;20.67;;
42018;SDS011;27703;51.980;5.848;2022-12-16T05:53:51;45.85;;;22.75;;
42018;SDS011;27703;51.980;5.848;2022-12-16T05:56:35;45.20;;;23.05;;
42018;SDS011;27703;51.980;5.848;2022-12-16T05:59:19;47.08;;;24.05;;
42018;SDS011;27703;51.980;5.848;2022-12-16T06:02:03;45.90;;;22.02;;
42018;SDS011;27703;51.980;5.848;2022-12-16T06:04:47;45.55;;;20.58;;
42018;SDS011;27703;51.980;5.848;2022-12-16T06:07:35;46.63;;;22.52;;
42018;SDS011;27703;51.980;5.848;2022-12-16T06:10:20;45.72;;;24.75;;
42018;SDS011;27703;51.980;5.848;2022-12-16T06:13:04;47.70;;;23.60;;
42018;SDS011;27703;51.980;5.848;2022-12-16T06:15:48;44.63;;;22.10;;
42018;SDS011;27703;51.980;5.848;2022-12-16T06:18:32;50.55;;;24.50;;
42018;SDS011;27703;51.980;5.848;2022-12-16T06:21:16;46.85;;;23.20;;
42018;SDS011;27703;51.980;5.848;2022-12-16T06:24:01;41.58;;;22.48;;
42018;SDS011;27703;51.980;5.848;2022-12-16T06:26:45;45.08;;;22.60;;
42018;SDS011;27703;51.980;5.848;2022-12-16T06:29:29;39.33;;;22.75;;
42018;SDS011;27703;51.980;5.848;2022-12-16T06:32:13;50.92;;;24.63;;
42018;SDS011;27703;51.980;5.848;2022-12-16T06:34:58;43.90;;;22.48;;
42018;SDS011;27703;51.980;5.848;2022-12-16T06:37:42;39.50;;;23.02;;
42018;SDS011;27703;51.980;5.848;2022-12-16T06:40:30;47.40;;;22.20;;
42018;SDS011;27703;51.980;5.848;2022-12-16T06:43:14;46.15;;;23.40;;
42018;SDS011;27703;51.980;5.848;2022-12-16T06:45:58;38.63;;;21.92;;
42018;SDS011;27703;51.980;5.848;2022-12-16T06:48:42;39.83;;;22.90;;
42018;SDS011;27703;51.980;5.848;2022-12-16T06:51:26;48.28;;;23.42;;
42018;SDS011;27703;51.980;5.848;2022-12-16T06:54:10;36.75;;;20.48;;
42018;SDS011;27703;51.980;5.848;2022-12-16T06:56:54;39.67;;;22.55;;
42018;SDS011;27703;51.980;5.848;2022-12-16T06:59:38;38.42;;;21.77;;
42018;SDS011;27703;51.980;5.848;2022-12-16T07:02:22;34.72;;;18.38;;
42018;SDS011;27703;51.980;5.848;2022-12-16T07:05:20;38.22;;;19.85;;
42018;SDS011;27703;51.980;5.848;2022-12-16T07:08:05;35.95;;;18.63;;
42018;SDS011;27703;51.980;5.848;2022-12-16T07:10:49;33.58;;;17.60;;
42018;SDS011;27703;51.980;5.848;2022-12-16T07:13:33;31.55;;;19.15;;
42018;SDS011;27703;51.980;5.848;2022-12-16T07:16:17;35.88;;;19.25;;
42018;SDS011;27703;51.980;5.848;2022-12-16T07:19:01;32.05;;;16.42;;
42018;SDS011;27703;51.980;5.848;2022-12-16T07:21:45;34.22;;;18.02;;
42018;SDS011;27703;51.980;5.848;2022-12-16T07:24:29;26.60;;;16.17;;
42018;SDS011;27703;51.980;5.848;2022-12-16T07:27:13;34.47;;;16.85;;
42018;SDS011;27703;51.980;5.848;2022-12-16T07:29:57;30.20;;;17.08;;
42018;SDS011;27703;51.980;5.848;2022-12-16T07:32:41;27.67;;;15.18;;
42018;SDS011;27703;51.980;5.848;2022-12-16T07:35:26;28.33;;;15.27;;
42018;SDS011;27703;51.980;5.848;2022-12-16T07:38:10;31.48;;;16.33;;
42018;SDS011;27703;51.980;5.848;2022-12-16T07:40:54;24.17;;;15.40;;
42018;SDS011;27703;51.980;5.848;2022-12-16T07:43:38;26.77;;;14.75;;
42018;SDS011;27703;51.980;5.848;2022-12-16T07:46:22;25.60;;;15.05;;
42018;SDS011;27703;51.980;5.848;2022-12-16T07:49:23;29.33;;;15.93;;
42018;SDS011;27703;51.980;5.848;2022-12-16T07:52:07;23.75;;;14.27;;
42018;SDS011;27703;51.980;5.848;2022-12-16T07:54:53;27.10;;;15.23;;
42018;SDS011;27703;51.980;5.848;2022-12-16T07:57:37;22.10;;;14.55;;
42018;SDS011;27703;51.980;5.848;2022-12-16T08:00:32;23.05;;;13.75;;
42018;SDS011;27703;51.980;5.848;2022-12-16T08:03:16;26.50;;;13.30;;
42018;SDS011;27703;51.980;5.848;2022-12-16T08:06:00;22.90;;;14.60;;
42018;SDS011;27703;51.980;5.848;2022-12-16T08:08:44;23.17;;;14.35;;
42018;SDS011;27703;51.980;5.848;2022-12-16T08:11:28;25.17;;;14.32;;
42018;SDS011;27703;51.980;5.848;2022-12-16T08:14:12;21.80;;;12.73;;
42018;SDS011;27703;51.980;5.848;2022-12-16T08:16:56;24.08;;;12.55;;
42018;SDS011;27703;51.980;5.848;2022-12-16T08:19:40;22.48;;;12.77;;
42018;SDS011;27703;51.980;5.848;2022-12-16T08:22:24;24.50;;;14.15;;
42018;SDS011;27703;51.980;5.848;2022-12-16T08:25:08;23.27;;;13.40;;
42018;SDS011;27703;51.980;5.848;2022-12-16T08:28:12;22.13;;;13.32;;
42018;SDS011;27703;51.980;5.848;2022-12-16T08:30:56;28.45;;;14.77;;
42018;SDS011;27703;51.980;5.848;2022-12-16T08:33:40;23.08;;;14.15;;
42018;SDS011;27703;51.980;5.848;2022-12-16T08:36:25;25.60;;;13.45;;
42018;SDS011;27703;51.980;5.848;2022-12-16T08:39:09;23.60;;;13.48;;
42018;SDS011;27703;51.980;5.848;2022-12-16T08:41:53;27.90;;;15.68;;
42018;SDS011;27703;51.980;5.848;2022-12-16T08:44:37;30.45;;;16.15;;
42018;SDS011;27703;51.980;5.848;2022-12-16T08:47:21;21.60;;;14.40;;
42018;SDS011;27703;51.980;5.848;2022-12-16T08:50:05;24.42;;;14.68;;
42018;SDS011;27703;51.980;5.848;2022-12-16T08:52:49;27.70;;;16.17;;
42018;SDS011;27703;51.980;5.848;2022-12-16T08:55:33;26.15;;;15.95;;
42018;SDS011;27703;51.980;5.848;2022-12-16T08:58:17;22.50;;;14.00;;
42018;SDS011;27703;51.980;5.848;2022-12-16T09:01:02;23.73;;;15.15;;
42018;SDS011;27703;51.980;5.848;2022-12-16T09:03:46;25.35;;;15.25;;
42018;SDS011;27703;51.980;5.848;2022-12-16T09:06:30;21.20;;;14.13;;
42018;SDS011;27703;51.980;5.848;2022-12-16T09:09:14;27.75;;;14.73;;
42018;SDS011;27703;51.980;5.848;2022-12-16T09:11:58;23.90;;;13.27;;
42018;SDS011;27703;51.980;5.848;2022-12-16T09:14:42;23.10;;;14.13;;
42018;SDS011;27703;51.980;5.848;2022-12-16T09:17:26;21.48;;;13.60;;
42018;SDS011;27703;51.980;5.848;2022-12-16T09:20:10;23.75;;;14.93;;
42018;SDS011;27703;51.980;5.848;2022-12-16T09:22:54;22.00;;;13.48;;
42018;SDS011;27703;51.980;5.848;2022-12-16T09:25:38;24.17;;;14.15;;
42018;SDS011;27703;51.980;5.848;2022-12-16T09:28:23;21.33;;;12.90;;
42018;SDS011;27703;51.980;5.848;2022-12-16T09:31:07;22.10;;;13.77;;
42018;SDS011;27703;51.980;5.848;2022-12-16T09:33:51;22.50;;;13.43;;
42018;SDS011;27703;51.980;5.848;2022-12-16T09:36:35;23.70;;;12.55;;
42018;SDS011;27703;51.980;5.848;2022-12-16T09:39:19;20.95;;;12.70;;
42018;SDS011;27703;51.980;5.848;2022-12-16T09:45:30;17.05;;;10.70;;
42018;SDS011;27703;51.980;5.848;2022-12-16T09:48:20;19.45;;;11.02;;
42018;SDS011;27703;51.980;5.848;2022-12-16T09:51:33;21.80;;;10.88;;
42018;SDS011;27703;51.980;5.848;2022-12-16T09:54:20;19.05;;;10.45;;
42018;SDS011;27703;51.980;5.848;2022-12-16T09:57:07;15.65;;;10.27;;
42018;SDS011;27703;51.980;5.848;2022-12-16T09:59:54;18.77;;;9.45;;
42018;SDS011;27703;51.980;5.848;2022-12-16T10:02:42;14.77;;;9.20;;
42018;SDS011;27703;51.980;5.848;2022-12-16T10:05:35;18.45;;;9.60;;
42018;SDS011;27703;51.980;5.848;2022-12-16T10:08:49;12.38;;;9.48;;
42018;SDS011;27703;51.980;5.848;2022-12-16T10:11:46;15.93;;;9.50;;
42018;SDS011;27703;51.980;5.848;2022-12-16T10:14:59;26.25;;;13.73;;
42018;SDS011;27703;51.980;5.848;2022-12-16T10:18:15;16.55;;;10.68;;
42018;SDS011;27703;51.980;5.848;2022-12-16T10:21:31;20.15;;;10.93;;
42018;SDS011;27703;51.980;5.848;2022-12-16T10:24:36;17.75;;;10.10;;
42018;SDS011;27703;51.980;5.848;2022-12-16T10:27:45;15.32;;;9.20;;
42018;SDS011;27703;51.980;5.848;2022-12-16T10:30:31;22.10;;;10.85;;
42018;SDS011;27703;51.980;5.848;2022-12-16T10:33:17;16.23;;;9.18;;
42018;SDS011;27703;51.980;5.848;2022-12-16T10:36:02;15.45;;;8.60;;
42018;SDS011;27703;51.980;5.848;2022-12-16T10:38:52;16.75;;;9.50;;
42018;SDS011;27703;51.980;5.848;2022-12-16T10:44:36;16.60;;;9.45;;
42018;SDS011;27703;51.980;5.848;2022-12-16T10:50:12;13.85;;;7.10;;
42018;SDS011;27703;51.980;5.848;2022-12-16T10:53:02;12.38;;;7.97;;
42018;SDS011;27703;51.980;5.848;2022-12-16T10:58:56;12.35;;;7.90;;
42018;SDS011;27703;51.980;5.848;2022-12-16T11:04:39;13.48;;;7.90;;
42018;SDS011;27703;51.980;5.848;2022-12-16T11:13:10;14.05;;;8.52;;
42018;SDS011;27703;51.980;5.848;2022-12-16T11:16:07;13.73;;;8.55;;
42018;SDS011;27703;51.980;5.848;2022-12-16T11:18:54;12.88;;;7.82;;
42018;SDS011;27703;51.980;5.848;2022-12-16T11:21:38;17.67;;;9.85;;
42018;SDS011;27703;51.980;5.848;2022-12-16T11:24:22;14.35;;;10.00;;
42018;SDS011;27703;51.980;5.848;2022-12-16T11:27:14;16.58;;;9.95;;
42018;SDS011;27703;51.980;5.848;2022-12-16T11:30:14;13.40;;;8.85;;
42018;SDS011;27703;51.980;5.848;2022-12-16T11:33:05;14.98;;;7.90;;
42018;SDS011;27703;51.980;5.848;2022-12-16T11:36:05;16.08;;;10.43;;
42018;SDS011;27703;51.980;5.848;2022-12-16T11:38:56;14.50;;;8.43;;
42018;SDS011;27703;51.980;5.848;2022-12-16T11:41:45;13.45;;;8.07;;
42018;SDS011;27703;51.980;5.848;2022-12-16T11:44:35;16.75;;;9.13;;
42018;SDS011;27703;51.980;5.848;2022-12-16T11:47:34;15.35;;;9.27;;
42018;SDS011;27703;51.980;5.848;2022-12-16T11:50:47;19.73;;;8.73;;
42018;SDS011;27703;51.980;5.848;2022-12-16T11:53:43;12.63;;;7.37;;
42018;SDS011;27703;51.980;5.848;2022-12-16T11:56:32;15.20;;;9.05;;
42018;SDS011;27703;51.980;5.848;2022-12-16T11:59:41;19.80;;;9.57;;
42018;SDS011;27703;51.980;5.848;2022-12-16T12:02:38;15.05;;;8.35;;
42018;SDS011;27703;51.980;5.848;2022-12-16T12:05:52;16.95;;;8.88;;
42018;SDS011;27703;51.980;5.848;2022-12-16T12:11:31;17.52;;;10.27;;
42018;SDS011;27703;51.980;5.848;2022-12-16T12:20:37;16.80;;;9.60;;
42018;SDS011;27703;51.980;5.848;2022-12-16T12:23:43;17.27;;;9.48;;
42018;SDS011;27703;51.980;5.848;2022-12-16T12:26:37;14.00;;;8.48;;
42018;SDS011;27703;51.980;5.848;2022-12-16T12:32:42;13.98;;;7.97;;
42018;SDS011;27703;51.980;5.848;2022-12-16T12:35:46;13.32;;;7.53;;
42018;SDS011;27703;51.980;5.848;2022-12-16T12:41:52;13.85;;;7.75;;
42018;SDS011;27703;51.980;5.848;2022-12-16T12:47:44;16.95;;;9.23;;
42018;SDS011;27703;51.980;5.848;2022-12-16T12:50:43;15.00;;;9.18;;
42018;SDS011;27703;51.980;5.848;2022-12-16T12:53:55;16.17;;;9.68;;
42018;SDS011;27703;51.980;5.848;2022-12-16T12:56:53;23.05;;;13.25;;
42018;SDS011;27703;51.980;5.848;2022-12-16T12:59:46;19.40;;;11.77;;
42018;SDS011;27703;51.980;5.848;2022-12-16T13:06:08;17.10;;;9.40;;
42018;SDS011;27703;51.980;5.848;2022-12-16T13:08:55;18.02;;;10.52;;
42018;SDS011;27703;51.980;5.848;2022-12-16T13:12:18;13.57;;;8.77;;
42018;SDS011;27703;51.980;5.848;2022-12-16T13:20:44;12.13;;;7.38;;
42018;SDS011;27703;51.980;5.848;2022-12-16T13:23:30;16.58;;;9.48;;
42018;SDS011;27703;51.980;5.848;2022-12-16T13:26:19;18.15;;;11.48;;
42018;SDS011;27703;51.980;5.848;2022-12-16T13:40:59;25.80;;;13.90;;
42018;SDS011;27703;51.980;5.848;2022-12-16T13:43:55;21.35;;;11.35;;
42018;SDS011;27703;51.980;5.848;2022-12-16T13:46:48;23.23;;;12.55;;
42018;SDS011;27703;51.980;5.848;2022-12-16T13:52:23;16.67;;;10.88;;
42018;SDS011;27703;51.980;5.848;2022-12-16T13:55:25;22.20;;;12.25;;
42018;SDS011;27703;51.980;5.848;2022-12-16T14:01:30;24.98;;;14.80;;
42018;SDS011;27703;51.980;5.848;2022-12-16T14:04:28;21.45;;;12.60;;
42018;SDS011;27703;51.980;5.848;2022-12-16T14:07:21;22.55;;;13.70;;
42018;SDS011;27703;51.980;5.848;2022-12-16T14:10:24;22.80;;;12.98;;
42018;SDS011;27703;51.980;5.848;2022-12-16T14:16:01;23.13;;;13.48;;
42018;SDS011;27703;51.980;5.848;2022-12-16T14:19:39;27.13;;;15.57;;
42018;SDS011;27703;51.980;5.848;2022-12-16T14:25:35;22.48;;;13.73;;
42018;SDS011;27703;51.980;5.848;2022-12-16T14:28:25;27.00;;;14.88;;
42018;SDS011;27703;51.980;5.848;2022-12-16T14:34:24;29.65;;;15.13;;
42018;SDS011;27703;51.980;5.848;2022-12-16T14:37:15;23.55;;;13.70;;
42018;SDS011;27703;51.980;5.848;2022-12-16T14:40:04;20.92;;;11.73;;
42018;SDS011;27703;51.980;5.848;2022-12-16T14:43:01;30.02;;;16.13;;
42018;SDS011;27703;51.980;5.848;2022-12-16T14:45:47;29.70;;;16.67;;
42018;SDS011;27703;51.980;5.848;2022-12-16T14:48:33;28.20;;;14.48;;
42018;SDS011;27703;51.980;5.848;2022-12-16T14:51:24;29.25;;;15.70;;
42018;SDS011;27703;51.980;5.848;2022-12-16T14:54:17;27.25;;;15.88;;
42018;SDS011;27703;51.980;5.848;2022-12-16T14:57:04;30.05;;;16.25;;
42018;SDS011;27703;51.980;5.848;2022-12-16T15:00:03;31.50;;;15.93;;
42018;SDS011;27703;51.980;5.848;2022-12-16T15:05:50;37.45;;;19.15;;
42018;SDS011;27703;51.980;5.848;2022-12-16T15:08:36;32.20;;;17.92;;
42018;SDS011;27703;51.980;5.848;2022-12-16T15:11:32;30.85;;;16.80;;
42018;SDS011;27703;51.980;5.848;2022-12-16T15:14:18;31.15;;;16.88;;
42018;SDS011;27703;51.980;5.848;2022-12-16T15:17:17;28.25;;;15.65;;
42018;SDS011;27703;51.980;5.848;2022-12-16T15:20:14;30.67;;;18.05;;
42018;SDS011;27703;51.980;5.848;2022-12-16T15:23:01;32.53;;;16.92;;
42018;SDS011;27703;51.980;5.848;2022-12-16T15:25:49;33.55;;;16.45;;
42018;SDS011;27703;51.980;5.848;2022-12-16T15:28:44;33.70;;;17.45;;
42018;SDS011;27703;51.980;5.848;2022-12-16T15:31:32;37.17;;;17.13;;
42018;SDS011;27703;51.980;5.848;2022-12-16T15:37:02;31.38;;;17.15;;
42018;SDS011;27703;51.980;5.848;2022-12-16T15:39:47;37.30;;;18.77;;
42018;SDS011;27703;51.980;5.848;2022-12-16T15:42:31;34.75;;;18.17;;
42018;SDS011;27703;51.980;5.848;2022-12-16T15:45:29;37.38;;;19.55;;
42018;SDS011;27703;51.980;5.848;2022-12-16T15:48:28;36.22;;;18.20;;
42018;SDS011;27703;51.980;5.848;2022-12-16T15:51:18;39.97;;;20.67;;
42018;SDS011;27703;51.980;5.848;2022-12-16T15:54:04;39.35;;;19.98;;
42018;SDS011;27703;51.980;5.848;2022-12-16T15:56:48;36.45;;;18.63;;
42018;SDS011;27703;51.980;5.848;2022-12-16T15:59:36;34.97;;;17.70;;
42018;SDS011;27703;51.980;5.848;2022-12-16T16:02:34;36.13;;;18.23;;
42018;SDS011;27703;51.980;5.848;2022-12-16T16:05:19;35.00;;;18.85;;
42018;SDS011;27703;51.980;5.848;2022-12-16T16:08:05;40.25;;;21.13;;
42018;SDS011;27703;51.980;5.848;2022-12-16T16:10:51;42.60;;;20.27;;
42018;SDS011;27703;51.980;5.848;2022-12-16T16:13:35;43.63;;;21.65;;
42018;SDS011;27703;51.980;5.848;2022-12-16T16:16:20;39.42;;;20.63;;
42018;SDS011;27703;51.980;5.848;2022-12-16T16:19:07;37.45;;;20.90;;
42018;SDS011;27703;51.980;5.848;2022-12-16T16:21:58;41.17;;;20.55;;
42018;SDS011;27703;51.980;5.848;2022-12-16T16:24:42;44.08;;;21.67;;
42018;SDS011;27703;51.980;5.848;2022-12-16T16:27:26;44.95;;;23.48;;
42018;SDS011;27703;51.980;5.848;2022-12-16T16:30:12;43.42;;;23.10;;
42018;SDS011;27703;51.980;5.848;2022-12-16T16:32:56;44.42;;;23.20;;
42018;SDS011;27703;51.980;5.848;2022-12-16T16:35:40;41.90;;;22.60;;
42018;SDS011;27703;51.980;5.848;2022-12-16T16:38:24;44.03;;;21.25;;
42018;SDS011;27703;51.980;5.848;2022-12-16T16:41:19;37.50;;;20.35;;
42018;SDS011;27703;51.980;5.848;2022-12-16T16:44:03;42.35;;;19.95;;
42018;SDS011;27703;51.980;5.848;2022-12-16T16:46:47;42.25;;;20.50;;
42018;SDS011;27703;51.980;5.848;2022-12-16T16:49:32;35.25;;;19.40;;
42018;SDS011;27703;51.980;5.848;2022-12-16T16:52:23;35.65;;;17.92;;
42018;SDS011;27703;51.980;5.848;2022-12-16T16:55:29;36.13;;;19.40;;
42018;SDS011;27703;51.980;5.848;2022-12-16T16:58:22;32.30;;;17.60;;
42018;SDS011;27703;51.980;5.848;2022-12-16T17:01:13;40.72;;;21.00;;
42018;SDS011;27703;51.980;5.848;2022-12-16T17:03:59;38.45;;;19.38;;
42018;SDS011;27703;51.980;5.848;2022-12-16T17:06:43;39.85;;;21.00;;
42018;SDS011;27703;51.980;5.848;2022-12-16T17:09:27;36.85;;;18.98;;
42018;SDS011;27703;51.980;5.848;2022-12-16T17:12:16;42.30;;;20.83;;
42018;SDS011;27703;51.980;5.848;2022-12-16T17:15:19;46.13;;;22.58;;
42018;SDS011;27703;51.980;5.848;2022-12-16T17:18:05;43.47;;;23.60;;
42018;SDS011;27703;51.980;5.848;2022-12-16T17:20:50;43.67;;;22.00;;
42018;SDS011;27703;51.980;5.848;2022-12-16T17:23:35;43.03;;;22.20;;
42018;SDS011;27703;51.980;5.848;2022-12-16T17:26:20;44.20;;;23.77;;
42018;SDS011;27703;51.980;5.848;2022-12-16T17:29:04;49.88;;;25.50;;
42018;SDS011;27703;51.980;5.848;2022-12-16T17:31:48;49.30;;;26.30;;
42018;SDS011;27703;51.980;5.848;2022-12-16T17:34:33;48.45;;;25.38;;
42018;SDS011;27703;51.980;5.848;2022-12-16T17:37:17;46.78;;;24.63;;
42018;SDS011;27703;51.980;5.848;2022-12-16T17:40:01;42.35;;;21.80;;
42018;SDS011;27703;51.980;5.848;2022-12-16T17:42:45;44.90;;;23.10;;
42018;SDS011;27703;51.980;5.848;2022-12-16T17:45:29;49.22;;;23.48;;
42018;SDS011;27703;51.980;5.848;2022-12-16T17:48:13;42.90;;;23.55;;
42018;SDS011;27703;51.980;5.848;2022-12-16T17:50:59;46.42;;;23.88;;
42018;SDS011;27703;51.980;5.848;2022-12-16T17:53:44;52.42;;;23.65;;
42018;SDS011;27703;51.980;5.848;2022-12-16T17:56:28;43.70;;;21.33;;
42018;SDS011;27703;51.980;5.848;2022-12-16T17:59:12;53.42;;;23.83;;
42018;SDS011;27703;51.980;5.848;2022-12-16T18:01:56;47.42;;;23.55;;
42018;SDS011;27703;51.980;5.848;2022-12-16T18:04:40;46.72;;;21.45;;